createdAt,value
2018-02-27T00:00:03.737Z,101667.95
2018-02-27T00:02:31.333Z,101674.35
2018-02-27T00:04:58.862Z,101666.55
2018-02-27T00:07:26.417Z,101677.02
2018-02-27T00:09:54.053Z,101672.04
2018-02-27T00:12:21.545Z,101667.92
2018-02-27T00:14:49.119Z,101664.84
2018-02-27T00:17:16.700Z,101664.71
2018-02-27T00:19:44.234Z,101669.56
2018-02-27T00:22:11.778Z,101667.03
2018-02-27T00:24:39.277Z,101674.36
2018-02-27T00:27:06.813Z,101670.55
2018-02-27T00:29:34.301Z,101662.27
2018-02-27T00:32:01.839Z,101662.09
2018-02-27T00:34:29.393Z,101659.95
2018-02-27T00:36:56.945Z,101654.39
2018-02-27T00:39:24.433Z,101652.67
2018-02-27T00:41:51.958Z,101653.74
2018-02-27T00:44:19.487Z,101650.70
2018-02-27T00:46:46.977Z,101647.06
2018-02-27T00:49:14.521Z,101641.66
2018-02-27T00:51:42.078Z,101644.53
2018-02-27T00:54:09.595Z,101648.39
2018-02-27T00:56:37.124Z,101647.05
2018-02-27T00:59:04.711Z,101642.25
2018-02-27T01:01:32.203Z,101641.78
2018-02-27T01:03:59.688Z,101630.60
2018-02-27T01:06:27.346Z,101634.06
2018-02-27T01:08:54.955Z,101630.26
2018-02-27T01:11:22.507Z,101623.44
2018-02-27T01:13:50.062Z,101626.31
2018-02-27T01:16:18.196Z,101621.64
2018-02-27T01:18:45.777Z,101622.48
2018-02-27T01:21:13.274Z,101616.84
2018-02-27T01:23:40.787Z,101610.89
2018-02-27T01:26:08.290Z,101612.38
2018-02-27T01:28:35.855Z,101614.38
2018-02-27T01:31:03.412Z,101613.30
2018-02-27T01:33:30.946Z,101614.52
2018-02-27T01:35:58.426Z,101620.84
2018-02-27T01:38:25.917Z,101625.28
2018-02-27T01:40:53.447Z,101620.11
2018-02-27T01:43:20.987Z,101614.47
2018-02-27T01:45:48.506Z,101612.87
2018-02-27T01:48:16.034Z,101606.11
2018-02-27T01:50:43.560Z,101607.78
2018-02-27T01:53:11.049Z,101602.27
2018-02-27T01:55:38.630Z,101604.55
2018-02-27T01:58:06.136Z,101602.90
2018-02-27T02:00:34.034Z,101603.57
2018-02-27T02:03:01.614Z,101602.28
2018-02-27T02:05:29.089Z,101596.28
2018-02-27T02:07:56.608Z,101601.16
2018-02-27T02:10:24.112Z,101593.72
2018-02-27T02:12:51.669Z,101595.77
2018-02-27T02:15:19.202Z,101589.82
2018-02-27T02:17:46.684Z,101592.64
2018-02-27T02:20:14.228Z,101588.77
2018-02-27T02:22:41.808Z,101589.47
2018-02-27T02:25:09.378Z,101590.25
2018-02-27T02:27:36.965Z,101589.19
2018-02-27T02:30:04.566Z,101583.83
2018-02-27T02:32:32.075Z,101584.09
2018-02-27T02:34:59.578Z,101589.67
2018-02-27T02:37:27.954Z,101594.42
2018-02-27T02:39:55.501Z,101591.54
2018-02-27T02:42:23.265Z,101589.73
2018-02-27T02:44:51.545Z,101588.59
2018-02-27T02:47:19.154Z,101585.89
2018-02-27T02:49:46.689Z,101587.51
2018-02-27T02:52:14.209Z,101589.28
2018-02-27T02:54:41.786Z,101590.91
2018-02-27T02:57:09.296Z,101588.73
2018-02-27T02:59:36.810Z,101579.46
2018-02-27T03:02:04.323Z,101572.44
2018-02-27T03:04:31.835Z,101577.91
2018-02-27T03:06:59.390Z,101570.79
2018-02-27T03:09:27.019Z,101577.11
2018-02-27T03:11:54.503Z,101569.23
2018-02-27T03:14:22.010Z,101570.59
2018-02-27T03:16:49.528Z,101566.06
2018-02-27T03:19:17.096Z,101567.01
2018-02-27T03:21:44.632Z,101561.18
2018-02-27T03:24:12.145Z,101556.75
2018-02-27T03:26:39.687Z,101550.09
2018-02-27T03:29:07.177Z,101550.34
2018-02-27T03:31:34.718Z,101543.30
2018-02-27T03:34:02.224Z,101542.88
2018-02-27T03:36:29.767Z,101541.94
2018-02-27T03:38:57.276Z,101534.75
2018-02-27T03:41:24.764Z,101532.16
2018-02-27T03:43:52.244Z,101539.02
2018-02-27T03:46:19.788Z,101533.16
2018-02-27T03:48:47.295Z,101527.94
2018-02-27T03:51:14.787Z,101534.46
2018-02-27T03:53:42.347Z,101531.86
2018-02-27T03:56:09.968Z,101530.53
2018-02-27T03:58:37.592Z,101525.48
2018-02-27T04:01:05.197Z,101524.28
2018-02-27T04:03:32.714Z,101527.83
2018-02-27T04:06:00.221Z,101525.84
2018-02-27T04:08:27.885Z,101536.56
2018-02-27T04:10:55.511Z,101533.20
2018-02-27T04:13:23.085Z,101527.08
2018-02-27T04:15:50.612Z,101524.09
2018-02-27T04:18:18.189Z,101526.77
2018-02-27T04:20:45.896Z,101525.39
2018-02-27T04:23:13.426Z,101522.13
2018-02-27T04:25:40.956Z,101523.61
2018-02-27T04:28:08.445Z,101523.62
2018-02-27T04:30:36.207Z,101515.56
2018-02-27T04:33:03.787Z,101515.30
2018-02-27T04:35:31.423Z,101514.98
2018-02-27T04:37:59.022Z,101525.78
2018-02-27T04:40:26.646Z,101523.06
2018-02-27T04:42:54.164Z,101524.98
2018-02-27T04:45:21.664Z,101520.96
2018-02-27T04:47:49.424Z,101523.67
2018-02-27T04:50:17.054Z,101526.09
2018-02-27T04:52:44.570Z,101524.73
2018-02-27T04:55:12.074Z,101521.08
2018-02-27T04:57:39.873Z,101518.73
2018-02-27T05:00:07.681Z,101515.51
2018-02-27T05:02:35.197Z,101521.20
2018-02-27T05:05:02.700Z,101521.56
2018-02-27T05:07:30.231Z,101521.92
2018-02-27T05:09:57.736Z,101526.27
2018-02-27T05:12:25.246Z,101526.50
2018-02-27T05:14:52.769Z,101521.98
2018-02-27T05:17:20.299Z,101521.56
2018-02-27T05:19:47.833Z,101523.69
2018-02-27T05:22:15.451Z,101523.35
2018-02-27T05:24:42.958Z,101520.83
2018-02-27T05:27:10.483Z,101517.24
2018-02-27T05:29:37.992Z,101519.04
2018-02-27T05:32:05.487Z,101517.91
2018-02-27T05:34:33.136Z,101516.18
2018-02-27T05:37:00.661Z,101514.52
2018-02-27T05:39:28.172Z,101518.36
2018-02-27T05:41:55.748Z,101517.48
2018-02-27T05:44:23.287Z,101504.43
2018-02-27T05:46:50.905Z,101513.02
2018-02-27T05:49:18.463Z,101509.55
2018-02-27T05:51:45.964Z,101511.11
2018-02-27T05:54:13.477Z,101517.55
2018-02-27T05:56:41.006Z,101518.91
2018-02-27T05:59:09.928Z,101521.05
2018-02-27T06:01:37.430Z,101515.05
2018-02-27T06:04:04.950Z,101522.30
2018-02-27T06:06:32.456Z,101523.81
2018-02-27T06:08:59.983Z,101517.45
2018-02-27T06:11:27.490Z,101521.82
2018-02-27T06:13:55.037Z,101518.28
2018-02-27T06:16:22.572Z,101523.42
2018-02-27T06:18:50.148Z,101519.58
2018-02-27T06:21:17.665Z,101524.08
2018-02-27T06:23:45.153Z,101521.23
2018-02-27T06:26:12.697Z,101522.80
2018-02-27T06:28:40.215Z,101519.09
2018-02-27T06:31:07.763Z,101515.73
2018-02-27T06:33:35.319Z,101510.02
2018-02-27T06:36:02.836Z,101503.76
2018-02-27T06:38:30.343Z,101502.66
2018-02-27T06:40:57.870Z,101504.60
2018-02-27T06:43:25.419Z,101500.30
2018-02-27T06:45:53.005Z,101502.95
2018-02-27T06:48:20.632Z,101508.13
2018-02-27T06:50:48.144Z,101497.87
2018-02-27T06:53:15.672Z,101502.27
2018-02-27T06:55:43.225Z,101496.37
2018-02-27T06:58:10.736Z,101497.08
2018-02-27T07:00:38.227Z,101494.55
2018-02-27T07:03:05.718Z,101490.26
2018-02-27T07:05:33.242Z,101488.20
2018-02-27T07:08:00.964Z,101484.14
2018-02-27T07:10:28.462Z,101485.91
2018-02-27T07:12:56.008Z,101487.22
2018-02-27T07:15:23.555Z,101487.78
2018-02-27T07:17:51.109Z,101489.97
2018-02-27T07:20:18.664Z,101487.87
2018-02-27T07:22:46.166Z,101487.14
2018-02-27T07:25:13.693Z,101483.73
2018-02-27T07:27:41.242Z,101483.20
2018-02-27T07:30:08.797Z,101477.51
2018-02-27T07:32:36.283Z,101481.33
2018-02-27T07:35:03.787Z,101484.92
2018-02-27T07:37:31.273Z,101483.43
2018-02-27T07:39:58.837Z,101484.87
2018-02-27T07:42:26.326Z,101487.09
2018-02-27T07:44:53.816Z,101485.50
2018-02-27T07:47:21.446Z,101479.34
2018-02-27T07:49:49.041Z,101483.89
2018-02-27T07:52:16.533Z,101485.26
2018-02-27T07:54:44.061Z,101487.44
2018-02-27T07:57:11.649Z,101485.91
2018-02-27T07:59:39.158Z,101486.48
2018-02-27T08:02:06.674Z,101480.36
2018-02-27T08:04:34.231Z,101474.61
2018-02-27T08:07:01.760Z,101474.81
2018-02-27T08:09:29.247Z,101476.48
2018-02-27T08:11:56.774Z,101476.80
2018-02-27T08:14:27.538Z,101475.29
2018-02-27T08:16:55.257Z,101472.17
2018-02-27T08:19:23.088Z,101466.23
2018-02-27T08:21:50.689Z,101463.73
2018-02-27T08:24:18.169Z,101459.78
2018-02-27T08:26:45.650Z,101468.20
2018-02-27T08:29:13.154Z,101462.62
2018-02-27T08:31:40.735Z,101464.37
2018-02-27T08:34:08.641Z,101450.63
2018-02-27T08:36:36.172Z,101449.25
2018-02-27T08:39:03.665Z,101450.39
2018-02-27T08:41:31.224Z,101455.98
2018-02-27T08:43:58.756Z,101453.36
2018-02-27T08:46:26.273Z,101460.39
2018-02-27T08:48:53.794Z,101458.29
2018-02-27T08:51:21.325Z,101466.16
2018-02-27T08:53:48.819Z,101460.21
2018-02-27T08:56:16.355Z,101459.36
2018-02-27T08:58:43.835Z,101458.23
2018-02-27T09:01:11.372Z,101465.14
2018-02-27T09:03:39.018Z,101460.95
2018-02-27T09:06:06.546Z,101459.56
2018-02-27T09:08:34.227Z,101465.20
2018-02-27T09:11:01.757Z,101457.67
2018-02-27T09:13:29.298Z,101449.72
2018-02-27T09:15:56.800Z,101435.61
2018-02-27T09:18:24.295Z,101433.58
2018-02-27T09:20:51.776Z,101433.75
2018-02-27T09:23:19.303Z,101434.86
2018-02-27T09:25:46.826Z,101439.64
2018-02-27T09:28:14.470Z,101437.30
2018-02-27T09:30:42.011Z,101428.64
2018-02-27T09:33:09.549Z,101420.81
2018-02-27T09:35:37.038Z,101415.09
2018-02-27T09:38:04.550Z,101422.45
2018-02-27T09:40:32.056Z,101423.23
2018-02-27T09:42:59.562Z,101420.95
2018-02-27T09:45:27.076Z,101424.09
2018-02-27T09:47:54.612Z,101424.82
2018-02-27T09:50:22.345Z,101424.95
2018-02-27T09:52:49.963Z,101428.10
2018-02-27T09:55:17.670Z,101428.89
2018-02-27T09:57:45.178Z,101418.84
2018-02-27T10:00:12.741Z,101415.81
2018-02-27T10:02:40.310Z,101413.55
2018-02-27T10:05:07.897Z,101404.48
2018-02-27T10:07:35.418Z,101408.56
2018-02-27T10:10:02.910Z,101401.02
2018-02-27T10:12:30.449Z,101401.90
2018-02-27T10:14:57.979Z,101399.73
2018-02-27T10:17:25.501Z,101390.34
2018-02-27T10:19:53.002Z,101388.12
2018-02-27T10:22:20.611Z,101388.12
2018-02-27T10:24:48.127Z,101388.07
2018-02-27T10:27:15.606Z,101389.98
2018-02-27T10:29:43.115Z,101383.77
2018-02-27T10:32:10.644Z,101389.26
2018-02-27T10:34:38.154Z,101386.70
2018-02-27T10:37:05.660Z,101382.70
2018-02-27T10:39:33.172Z,101382.13
2018-02-27T10:42:00.688Z,101379.13
2018-02-27T10:44:28.246Z,101376.02
2018-02-27T10:46:55.768Z,101375.87
2018-02-27T10:49:23.305Z,101372.48
2018-02-27T10:51:50.837Z,101364.41
2018-02-27T10:54:18.337Z,101369.36
2018-02-27T10:56:45.828Z,101364.61
2018-02-27T10:59:13.376Z,101370.67
2018-02-27T11:01:40.945Z,101365.11
2018-02-27T11:04:08.451Z,101358.28
2018-02-27T11:06:35.939Z,101359.33
2018-02-27T11:09:03.458Z,101360.66
2018-02-27T11:11:30.968Z,101359.59
2018-02-27T11:13:58.485Z,101349.67
2018-02-27T11:16:26.011Z,101353.00
2018-02-27T11:18:53.598Z,101345.96
2018-02-27T11:21:21.104Z,101342.52
2018-02-27T11:23:48.645Z,101335.20
2018-02-27T11:26:16.172Z,101336.89
2018-02-27T11:28:43.698Z,101337.14
2018-02-27T11:31:11.196Z,101336.48
2018-02-27T11:33:38.717Z,101334.57
2018-02-27T11:36:06.241Z,101321.63
2018-02-27T11:38:33.739Z,101319.59
2018-02-27T11:41:01.256Z,101316.33
2018-02-27T11:43:28.753Z,101317.00
2018-02-27T11:45:56.254Z,101310.34
2018-02-27T11:48:23.801Z,101311.73
2018-02-27T11:50:51.351Z,101311.61
2018-02-27T11:53:18.868Z,101300.22
2018-02-27T11:55:46.447Z,101301.98
2018-02-27T11:58:13.970Z,101296.27
2018-02-27T12:00:41.544Z,101294.42
2018-02-27T12:03:09.092Z,101288.03
2018-02-27T12:05:36.639Z,101285.94
2018-02-27T12:08:04.119Z,101284.81
2018-02-27T12:10:31.646Z,101279.64
2018-02-27T12:12:59.132Z,101283.80
2018-02-27T12:15:26.630Z,101288.92
2018-02-27T12:17:54.150Z,101289.70
2018-02-27T12:20:21.684Z,101285.30
2018-02-27T12:22:49.235Z,101282.67
2018-02-27T12:25:16.737Z,101281.00
2018-02-27T12:27:44.261Z,101281.11
2018-02-27T12:30:11.901Z,101276.41
2018-02-27T12:32:39.410Z,101274.73
2018-02-27T12:35:07.081Z,101273.53
2018-02-27T12:37:34.707Z,101271.65
2018-02-27T12:40:02.201Z,101270.45
2018-02-27T12:42:29.736Z,101267.34
2018-02-27T12:44:57.247Z,101265.80
2018-02-27T12:47:24.793Z,101262.52
2018-02-27T12:49:52.394Z,101263.02
2018-02-27T12:52:19.908Z,101262.98
2018-02-27T12:54:47.450Z,101256.80
2018-02-27T12:57:14.958Z,101251.94
2018-02-27T12:59:42.482Z,101253.95
2018-02-27T13:02:10.105Z,101249.14
2018-02-27T13:04:37.775Z,101246.73
2018-02-27T13:07:05.347Z,101245.22
2018-02-27T13:09:32.844Z,101248.41
2018-02-27T13:12:00.422Z,101248.46
2018-02-27T13:14:28.048Z,101240.23
2018-02-27T13:16:55.620Z,101240.05
2018-02-27T13:19:23.230Z,101241.11
2018-02-27T13:21:50.758Z,101234.02
2018-02-27T13:24:18.346Z,101233.34
2018-02-27T13:26:45.951Z,101230.83
2018-02-27T13:29:13.586Z,101222.89
2018-02-27T13:31:41.169Z,101224.12
2018-02-27T13:34:08.807Z,101225.98
2018-02-27T13:36:36.360Z,101219.61
2018-02-27T13:39:04.088Z,101223.67
2018-02-27T13:41:31.641Z,101221.23
2018-02-27T13:43:59.250Z,101213.91
2018-02-27T13:46:27.074Z,101216.09
2018-02-27T13:48:54.781Z,101204.55
2018-02-27T13:51:22.347Z,101205.92
2018-02-27T13:53:49.845Z,101208.84
2018-02-27T13:56:17.346Z,101205.63
2018-02-27T13:58:44.949Z,101195.19
2018-02-27T14:01:12.455Z,101197.05
2018-02-27T14:03:40.015Z,101187.67
2018-02-27T14:06:07.643Z,101188.28
2018-02-27T14:08:35.182Z,101189.44
2018-02-27T14:11:02.810Z,101184.89
2018-02-27T14:13:30.443Z,101181.00
2018-02-27T14:15:58.068Z,101182.60
2018-02-27T14:18:25.593Z,101177.36
2018-02-27T14:20:54.563Z,101179.58
2018-02-27T14:23:22.164Z,101179.14
2018-02-27T14:25:49.721Z,101174.98
2018-02-27T14:28:17.289Z,101171.38
2018-02-27T14:30:44.840Z,101174.64
2018-02-27T14:33:12.418Z,101171.70
2018-02-27T14:35:40.065Z,101177.34
2018-02-27T14:38:07.578Z,101169.77
2018-02-27T14:40:35.082Z,101172.89
2018-02-27T14:43:02.628Z,101166.89
2018-02-27T14:45:30.137Z,101164.73
2018-02-27T14:47:57.782Z,101171.91
2018-02-27T14:50:25.354Z,101171.38
2018-02-27T14:52:53.066Z,101169.08
2018-02-27T14:55:20.584Z,101174.42
2018-02-27T14:57:48.159Z,101172.55
2018-02-27T15:00:15.671Z,101173.57
2018-02-27T15:02:43.271Z,101169.81
2018-02-27T15:05:11.236Z,101172.68
2018-02-27T15:07:38.814Z,101172.95
2018-02-27T15:10:06.357Z,101169.05
2018-02-27T15:12:33.949Z,101161.72
2018-02-27T15:15:01.458Z,101161.88
2018-02-27T15:17:29.116Z,101163.91
2018-02-27T15:19:56.697Z,101162.13
2018-02-27T15:22:26.862Z,101162.94
2018-02-27T15:24:54.382Z,101159.38
2018-02-27T15:27:21.928Z,101160.41
2018-02-27T15:29:49.441Z,101161.69
2018-02-27T15:32:16.980Z,101158.45
2018-02-27T15:34:44.484Z,101153.06
2018-02-27T15:37:12.076Z,101153.38
2018-02-27T15:39:39.612Z,101164.87
2018-02-27T15:42:07.155Z,101164.08
2018-02-27T15:44:34.699Z,101171.64
2018-02-27T15:47:02.302Z,101168.45
2018-02-27T15:49:29.913Z,101166.15
2018-02-27T15:51:57.534Z,101171.52
2018-02-27T15:54:26.008Z,101176.75
2018-02-27T15:56:53.602Z,101179.64
2018-02-27T15:59:21.109Z,101176.58
2018-02-27T16:01:48.596Z,101179.63
2018-02-27T16:04:16.126Z,101176.08
2018-02-27T16:06:43.664Z,101174.36
2018-02-27T16:09:11.206Z,101169.23
2018-02-27T16:11:41.663Z,101171.65
2018-02-27T16:14:09.249Z,101166.27
2018-02-27T16:16:36.843Z,101167.17
2018-02-27T16:19:04.750Z,101170.72
2018-02-27T16:21:32.429Z,101167.52
2018-02-27T16:24:01.474Z,101172.81
2018-02-27T16:26:28.987Z,101168.91
2018-02-27T16:28:56.512Z,101176.41
2018-02-27T16:31:24.137Z,101175.15
2018-02-27T16:33:51.715Z,101172.46
2018-02-27T16:36:19.256Z,101173.16
2018-02-27T16:38:46.848Z,101175.45
2018-02-27T16:41:14.354Z,101180.64
2018-02-27T16:43:41.883Z,101178.66
2018-02-27T16:46:09.634Z,101178.22
2018-02-27T16:48:37.159Z,101180.88
2018-02-27T16:51:04.678Z,101175.69
2018-02-27T16:53:32.257Z,101181.62
2018-02-27T16:55:59.775Z,101183.20
2018-02-27T16:58:27.315Z,101190.21
2018-02-27T17:00:54.833Z,101193.32
2018-02-27T17:03:22.334Z,101200.85
2018-02-27T17:05:49.895Z,101201.91
2018-02-27T17:08:17.415Z,101203.28
2018-02-27T17:10:44.932Z,101202.07
2018-02-27T17:13:12.528Z,101202.10
2018-02-27T17:15:40.044Z,101204.33
2018-02-27T17:18:07.574Z,101203.95
2018-02-27T17:20:35.105Z,101209.59
2018-02-27T17:23:02.623Z,101210.20
2018-02-27T17:25:30.111Z,101219.47
2018-02-27T17:27:57.686Z,101216.12
2018-02-27T17:30:25.187Z,101211.76
2018-02-27T17:32:52.872Z,101222.31
2018-02-27T17:35:20.625Z,101216.84
2018-02-27T17:37:48.131Z,101217.64
2018-02-27T17:40:15.617Z,101219.06
2018-02-27T17:42:43.150Z,101215.19
2018-02-27T17:45:10.847Z,101214.02
2018-02-27T17:47:38.405Z,101212.00
2018-02-27T17:50:05.959Z,101217.42
2018-02-27T17:52:33.572Z,101215.98
2018-02-27T17:55:01.117Z,101218.06
2018-02-27T17:57:28.700Z,101210.52
2018-02-27T17:59:56.216Z,101212.77
2018-02-27T18:02:23.710Z,101210.52
2018-02-27T18:04:51.319Z,101215.41
2018-02-27T18:07:18.846Z,101215.19
2018-02-27T18:09:46.659Z,101209.77
2018-02-27T18:12:14.181Z,101219.75
2018-02-27T18:14:41.733Z,101216.11
2018-02-27T18:17:09.298Z,101217.62
2018-02-27T18:19:36.959Z,101218.53
2018-02-27T18:22:04.548Z,101217.28
2018-02-27T18:24:32.246Z,101221.48
2018-02-27T18:26:59.796Z,101220.98
2018-02-27T18:29:27.295Z,101221.02
2018-02-27T18:31:54.810Z,101219.50
2018-02-27T18:34:22.489Z,101221.86
2018-02-27T18:36:49.986Z,101221.03
2018-02-27T18:39:17.515Z,101224.34
2018-02-27T18:41:45.122Z,101222.89
2018-02-27T18:44:12.689Z,101227.17
2018-02-27T18:46:40.239Z,101228.97
2018-02-27T18:49:07.773Z,101235.48
2018-02-27T18:51:35.331Z,101231.91
2018-02-27T18:54:02.967Z,101237.65
2018-02-27T18:56:30.538Z,101244.36
2018-02-27T18:58:58.061Z,101245.67
2018-02-27T19:01:25.558Z,101244.04
2018-02-27T19:03:53.141Z,101246.67
2018-02-27T19:06:20.662Z,101251.70
2018-02-27T19:08:48.184Z,101255.27
2018-02-27T19:11:15.699Z,101258.94
2018-02-27T19:13:43.242Z,101262.91
2018-02-27T19:16:10.789Z,101265.13
2018-02-27T19:24:41.743Z,101270.92
2018-02-27T19:27:09.256Z,101273.48
2018-02-27T19:29:36.758Z,101273.55
2018-02-27T19:32:04.262Z,101275.83
2018-02-27T19:34:31.784Z,101279.78
2018-02-27T19:36:59.624Z,101275.59
2018-02-27T19:39:27.113Z,101283.27
2018-02-27T19:41:54.602Z,101280.23
2018-02-27T19:44:22.099Z,101283.84
2018-02-27T19:46:49.617Z,101282.84
2018-02-27T19:49:17.142Z,101283.69
2018-02-27T19:51:44.736Z,101287.15
2018-02-27T19:54:12.215Z,101290.06
2018-02-27T19:56:39.739Z,101289.11
2018-02-27T19:59:07.252Z,101294.56
2018-02-27T20:01:34.857Z,101293.09
2018-02-27T20:04:02.349Z,101299.11
2018-02-27T20:06:30.713Z,101297.01
2018-02-27T20:08:58.197Z,101298.78
2018-02-27T20:11:25.731Z,101301.31
2018-02-27T20:13:55.021Z,101300.00
2018-02-27T20:16:22.539Z,101306.05
2018-02-27T20:18:50.026Z,101308.05
2018-02-27T20:21:17.528Z,101309.55
2018-02-27T20:23:50.616Z,101313.32
2018-02-27T20:26:18.210Z,101308.97
2018-02-27T20:28:51.334Z,101319.23
2018-02-27T20:31:18.885Z,101317.59
2018-02-27T20:33:46.963Z,101322.54
2018-02-27T20:36:14.458Z,101331.94
2018-02-27T20:38:48.081Z,101328.63
2018-02-27T20:41:15.581Z,101338.70
2018-02-27T20:43:43.115Z,101327.06
2018-02-27T20:46:10.622Z,101337.21
2018-02-27T20:48:38.162Z,101334.75
2018-02-27T20:51:05.843Z,101337.03
2018-02-27T20:53:33.435Z,101342.02
2018-02-27T20:58:46.927Z,101342.48
2018-02-27T21:01:15.489Z,101344.12
2018-02-27T21:03:43.093Z,101342.77
2018-02-27T21:06:10.572Z,101347.32
2018-02-27T21:08:38.053Z,101353.27
2018-02-27T21:11:05.610Z,101347.43
2018-02-27T21:13:33.112Z,101348.96
2018-02-27T21:16:00.601Z,101356.87
2018-02-27T21:18:34.565Z,101352.84
2018-02-27T21:21:02.071Z,101352.02
2018-02-27T21:23:29.810Z,101356.83
2018-02-27T21:25:57.332Z,101360.07
2018-02-27T21:28:24.863Z,101363.81
2018-02-27T21:30:52.341Z,101370.58
2018-02-27T21:33:19.845Z,101365.55
2018-02-27T21:35:47.409Z,101371.00
2018-02-27T21:38:15.319Z,101367.30
2018-02-27T21:40:42.868Z,101371.83
2018-02-27T21:43:10.398Z,101372.46
2018-02-27T21:45:37.952Z,101378.30
2018-02-27T21:48:05.447Z,101379.02
2018-02-27T21:50:33.012Z,101380.19
2018-02-27T21:53:00.570Z,101383.68
2018-02-27T21:55:28.085Z,101370.14
2018-02-27T21:57:55.805Z,101378.52
2018-02-27T22:00:23.391Z,101377.30
2018-02-27T22:02:50.881Z,101384.89
2018-02-27T22:05:18.389Z,101382.11
2018-02-27T22:07:45.882Z,101384.93
2018-02-27T22:10:13.412Z,101394.80
2018-02-27T22:12:40.953Z,101386.89
2018-02-27T22:15:08.507Z,101395.68
2018-02-27T22:17:36.035Z,101395.31
2018-02-27T22:20:03.528Z,101389.83
2018-02-27T22:22:31.030Z,101406.95
2018-02-27T22:24:58.552Z,101409.66
2018-02-27T22:27:26.048Z,101410.77
2018-02-27T22:29:53.551Z,101408.62
2018-02-27T22:32:21.080Z,101412.43
2018-02-27T22:34:48.574Z,101419.00
2018-02-27T22:37:16.131Z,101415.20
2018-02-27T22:39:43.745Z,101424.05
2018-02-27T22:42:11.262Z,101421.55
2018-02-27T22:44:38.789Z,101417.42
2018-02-27T22:47:06.397Z,101423.87
2018-02-27T22:49:33.936Z,101427.39
2018-02-27T22:52:01.433Z,101424.45
2018-02-27T22:54:28.937Z,101435.94
2018-02-27T22:56:56.547Z,101434.82
2018-02-27T22:59:24.068Z,101435.90
2018-02-27T23:01:51.574Z,101446.45
2018-02-27T23:04:19.265Z,101454.17
2018-02-27T23:06:46.804Z,101456.38
2018-02-27T23:09:14.318Z,101440.84
2018-02-27T23:11:41.823Z,101450.12
2018-02-27T23:14:09.327Z,101447.23
2018-02-27T23:16:36.842Z,101443.70
2018-02-27T23:19:04.382Z,101448.62
2018-02-27T23:21:31.881Z,101451.61
2018-02-27T23:24:04.224Z,101453.36
2018-02-27T23:26:42.166Z,101467.92
2018-02-27T23:29:10.792Z,101461.96
2018-02-27T23:31:38.368Z,101467.92
2018-02-27T23:34:11.548Z,101465.08
2018-02-27T23:36:39.052Z,101472.12
2018-02-27T23:39:07.329Z,101474.11
2018-02-27T23:41:34.859Z,101470.02
2018-02-27T23:44:02.359Z,101468.55
2018-02-27T23:46:29.869Z,101475.55
2018-02-27T23:48:57.476Z,101472.94
2018-02-27T23:51:25.287Z,101468.05
2018-02-27T23:53:52.773Z,101476.83
2018-02-27T23:56:20.278Z,101469.79
2018-02-27T23:58:47.812Z,101470.77
